Huvudsida
METAR-TAF:

METAR-TAF

Flygplatser :

Kigalis internationella flygplats

Kigali, Rwanda

latitud: 01-58S, longitud: 030-07E, höjd: 1491 m

Aktuellt väderrapport

Denna rapport gjordes för 36 minuter sedan, klockan 14:30 UTC
Vind 4 kt från syd, varierande mellan sydost och sydväst
Temperatur 27°C
Fuktighet 39%
Tryck 1017 hPa
Sikt 10 km eller mer
Få moln på en höjd av 2600 ft

METAR: HRYR 161430Z 18004KT 130V230 9999 FEW026 27/12 Q1017 NOSIG

Tid: 17:06 (15:06 UTC)

Väderprognos

Denna rapport gjordes för 4 timmar och 6 minuter sedan, klockan 11:00 UTC
Prognos gäller från 16 kl. 12 UTC till 17 kl. 18 UTC
Vind 8 kt från syd/sydost
Sikt 10 km eller mer
Spridda moln på en höjd av 2500 ft
Blir
från 16 kl. 18 UTC till 16 kl. 21 UTC
Vind 4 kt från nordväst
Få moln på en höjd av 2500 ft
Blir
från 17 kl. 10 UTC till 17 kl. 13 UTC
Vind 10 kt från syd
Spridda moln på en höjd av 2300 ft

TAF: HRYR 161100Z 1612/1718 16008KT 9999 SCT025 BECMG 1618/1621 32004KT FEW025 BECMG 1710/1713 17010KT SCT023

Aktuella väderrapporter och prognoser från 4000 flygplatser (METAR- och TAF-rapporter).

De tillgängliga stationerna syns som gula och röda prickar på kartan.

För musen över prickarna för att se namnen på stationerna.

Klicka sedan för att få väderrapporter och prognoser.

För att ändra kartan: Klicka på de gröna knapparna med ett svart kors på för att zooma in; den gröna knappen med ett streck på för att zooma ut; eller på de gröna pilarna för angränsande kartor.


METAR-TAF: